sensor_id;sensor_type;location;lat;lon;timestamp;P1;durP1;ratioP1;P2;durP2;ratioP2
75537;SDS011;64121;48.666;8.114;2023-07-29T00:00:14;2.30;;;0.73;;
75537;SDS011;64121;48.666;8.114;2023-07-29T00:02:41;1.60;;;0.70;;
75537;SDS011;64121;48.666;8.114;2023-07-29T00:05:06;1.73;;;0.80;;
75537;SDS011;64121;48.666;8.114;2023-07-29T00:07:31;1.52;;;0.73;;
75537;SDS011;64121;48.666;8.114;2023-07-29T00:09:56;1.40;;;0.50;;
75537;SDS011;64121;48.666;8.114;2023-07-29T00:12:22;3.10;;;0.73;;
75537;SDS011;64121;48.666;8.114;2023-07-29T00:14:47;1.83;;;0.70;;
75537;SDS011;64121;48.666;8.114;2023-07-29T00:17:12;0.97;;;0.60;;
75537;SDS011;64121;48.666;8.114;2023-07-29T00:19:38;1.43;;;0.60;;
75537;SDS011;64121;48.666;8.114;2023-07-29T00:22:04;1.17;;;0.55;;
75537;SDS011;64121;48.666;8.114;2023-07-29T00:24:29;1.40;;;0.70;;
75537;SDS011;64121;48.666;8.114;2023-07-29T00:26:54;1.57;;;0.70;;
75537;SDS011;64121;48.666;8.114;2023-07-29T00:29:19;1.50;;;0.70;;
75537;SDS011;64121;48.666;8.114;2023-07-29T00:31:45;1.47;;;0.60;;
75537;SDS011;64121;48.666;8.114;2023-07-29T00:34:10;0.97;;;0.50;;
75537;SDS011;64121;48.666;8.114;2023-07-29T00:36:36;1.17;;;0.63;;
75537;SDS011;64121;48.666;8.114;2023-07-29T00:39:01;2.42;;;0.70;;
75537;SDS011;64121;48.666;8.114;2023-07-29T00:41:27;2.17;;;0.60;;
75537;SDS011;64121;48.666;8.114;2023-07-29T00:43:52;1.40;;;0.70;;
75537;SDS011;64121;48.666;8.114;2023-07-29T00:46:17;2.17;;;0.73;;
75537;SDS011;64121;48.666;8.114;2023-07-29T00:48:43;3.05;;;0.60;;
75537;SDS011;64121;48.666;8.114;2023-07-29T00:51:08;1.33;;;0.60;;
75537;SDS011;64121;48.666;8.114;2023-07-29T00:53:35;2.53;;;0.73;;
75537;SDS011;64121;48.666;8.114;2023-07-29T00:56:00;1.85;;;0.80;;
75537;SDS011;64121;48.666;8.114;2023-07-29T00:58:25;1.52;;;0.60;;
75537;SDS011;64121;48.666;8.114;2023-07-29T01:00:50;2.27;;;0.90;;
75537;SDS011;64121;48.666;8.114;2023-07-29T01:03:15;2.73;;;0.83;;
75537;SDS011;64121;48.666;8.114;2023-07-29T01:05:50;1.15;;;0.65;;
75537;SDS011;64121;48.666;8.114;2023-07-29T01:08:22;1.55;;;0.88;;
75537;SDS011;64121;48.666;8.114;2023-07-29T01:10:57;1.00;;;0.50;;
75537;SDS011;64121;48.666;8.114;2023-07-29T01:13:25;1.60;;;0.70;;
75537;SDS011;64121;48.666;8.114;2023-07-29T01:15:52;1.52;;;0.70;;
75537;SDS011;64121;48.666;8.114;2023-07-29T01:18:20;0.88;;;0.50;;
75537;SDS011;64121;48.666;8.114;2023-07-29T01:20:46;1.27;;;0.60;;
75537;SDS011;64121;48.666;8.114;2023-07-29T01:23:12;1.95;;;0.80;;
75537;SDS011;64121;48.666;8.114;2023-07-29T01:25:39;1.80;;;0.80;;
75537;SDS011;64121;48.666;8.114;2023-07-29T01:28:04;1.85;;;0.70;;
75537;SDS011;64121;48.666;8.114;2023-07-29T01:30:30;2.77;;;0.93;;
75537;SDS011;64121;48.666;8.114;2023-07-29T01:32:57;2.42;;;0.90;;
75537;SDS011;64121;48.666;8.114;2023-07-29T01:35:26;1.48;;;0.70;;
75537;SDS011;64121;48.666;8.114;2023-07-29T01:37:52;1.65;;;0.80;;
75537;SDS011;64121;48.666;8.114;2023-07-29T01:40:18;2.30;;;0.70;;
75537;SDS011;64121;48.666;8.114;2023-07-29T01:42:45;1.15;;;0.60;;
75537;SDS011;64121;48.666;8.114;2023-07-29T01:45:10;1.77;;;0.70;;
75537;SDS011;64121;48.666;8.114;2023-07-29T01:47:35;2.30;;;0.80;;
75537;SDS011;64121;48.666;8.114;2023-07-29T01:50:00;2.42;;;0.73;;
75537;SDS011;64121;48.666;8.114;2023-07-29T01:52:26;1.60;;;0.80;;
75537;SDS011;64121;48.666;8.114;2023-07-29T01:54:51;2.10;;;0.90;;
75537;SDS011;64121;48.666;8.114;2023-07-29T01:57:16;1.73;;;0.80;;
75537;SDS011;64121;48.666;8.114;2023-07-29T01:59:42;1.63;;;0.80;;
75537;SDS011;64121;48.666;8.114;2023-07-29T02:02:08;2.15;;;1.00;;
75537;SDS011;64121;48.666;8.114;2023-07-29T02:04:33;2.90;;;0.90;;
75537;SDS011;64121;48.666;8.114;2023-07-29T02:06:58;1.43;;;0.80;;
75537;SDS011;64121;48.666;8.114;2023-07-29T02:09:23;3.30;;;0.80;;
75537;SDS011;64121;48.666;8.114;2023-07-29T02:11:48;1.53;;;0.67;;
75537;SDS011;64121;48.666;8.114;2023-07-29T02:14:13;3.23;;;1.10;;
75537;SDS011;64121;48.666;8.114;2023-07-29T02:16:40;1.30;;;0.73;;
75537;SDS011;64121;48.666;8.114;2023-07-29T02:19:05;1.85;;;0.90;;
75537;SDS011;64121;48.666;8.114;2023-07-29T02:21:30;1.10;;;0.60;;
75537;SDS011;64121;48.666;8.114;2023-07-29T02:23:55;2.40;;;0.60;;
75537;SDS011;64121;48.666;8.114;2023-07-29T02:26:21;2.60;;;0.87;;
75537;SDS011;64121;48.666;8.114;2023-07-29T02:28:46;3.08;;;0.85;;
75537;SDS011;64121;48.666;8.114;2023-07-29T02:31:14;2.07;;;0.80;;
75537;SDS011;64121;48.666;8.114;2023-07-29T02:33:41;1.60;;;0.98;;
75537;SDS011;64121;48.666;8.114;2023-07-29T02:36:06;2.33;;;1.20;;
75537;SDS011;64121;48.666;8.114;2023-07-29T02:38:31;1.80;;;1.20;;
75537;SDS011;64121;48.666;8.114;2023-07-29T02:40:56;2.47;;;1.00;;
75537;SDS011;64121;48.666;8.114;2023-07-29T02:43:22;3.63;;;1.20;;
75537;SDS011;64121;48.666;8.114;2023-07-29T02:45:47;2.63;;;0.93;;
75537;SDS011;64121;48.666;8.114;2023-07-29T02:48:12;4.23;;;1.10;;
75537;SDS011;64121;48.666;8.114;2023-07-29T02:50:38;3.53;;;1.20;;
75537;SDS011;64121;48.666;8.114;2023-07-29T02:53:04;2.35;;;1.00;;
75537;SDS011;64121;48.666;8.114;2023-07-29T02:55:29;2.07;;;1.10;;
75537;SDS011;64121;48.666;8.114;2023-07-29T02:57:54;3.63;;;1.10;;
75537;SDS011;64121;48.666;8.114;2023-07-29T03:00:19;2.93;;;1.13;;
75537;SDS011;64121;48.666;8.114;2023-07-29T03:02:44;2.33;;;1.00;;
75537;SDS011;64121;48.666;8.114;2023-07-29T03:05:10;3.07;;;1.03;;
75537;SDS011;64121;48.666;8.114;2023-07-29T03:07:36;2.97;;;1.05;;
75537;SDS011;64121;48.666;8.114;2023-07-29T03:10:01;4.10;;;1.40;;
75537;SDS011;64121;48.666;8.114;2023-07-29T03:12:26;3.77;;;1.10;;
75537;SDS011;64121;48.666;8.114;2023-07-29T03:14:52;2.27;;;1.00;;
75537;SDS011;64121;48.666;8.114;2023-07-29T03:17:17;5.67;;;1.20;;
75537;SDS011;64121;48.666;8.114;2023-07-29T03:19:42;3.17;;;1.47;;
75537;SDS011;64121;48.666;8.114;2023-07-29T03:22:07;2.30;;;1.10;;
75537;SDS011;64121;48.666;8.114;2023-07-29T03:24:34;3.40;;;1.20;;
75537;SDS011;64121;48.666;8.114;2023-07-29T03:26:59;1.38;;;1.00;;
75537;SDS011;64121;48.666;8.114;2023-07-29T03:29:24;2.80;;;1.23;;
75537;SDS011;64121;48.666;8.114;2023-07-29T03:31:49;3.00;;;1.20;;
75537;SDS011;64121;48.666;8.114;2023-07-29T03:34:14;3.80;;;1.43;;
75537;SDS011;64121;48.666;8.114;2023-07-29T03:36:39;2.10;;;1.03;;
75537;SDS011;64121;48.666;8.114;2023-07-29T03:39:05;2.60;;;1.20;;
75537;SDS011;64121;48.666;8.114;2023-07-29T03:41:31;2.80;;;1.10;;
75537;SDS011;64121;48.666;8.114;2023-07-29T03:43:56;2.92;;;1.25;;
75537;SDS011;64121;48.666;8.114;2023-07-29T03:46:21;3.80;;;1.23;;
75537;SDS011;64121;48.666;8.114;2023-07-29T03:48:47;2.70;;;1.23;;
75537;SDS011;64121;48.666;8.114;2023-07-29T03:51:12;2.33;;;1.60;;
75537;SDS011;64121;48.666;8.114;2023-07-29T03:53:37;2.20;;;1.20;;
75537;SDS011;64121;48.666;8.114;2023-07-29T03:56:02;2.60;;;1.30;;
75537;SDS011;64121;48.666;8.114;2023-07-29T03:58:29;2.40;;;1.30;;
75537;SDS011;64121;48.666;8.114;2023-07-29T04:00:54;1.73;;;1.10;;
75537;SDS011;64121;48.666;8.114;2023-07-29T04:03:19;2.73;;;1.20;;
75537;SDS011;64121;48.666;8.114;2023-07-29T04:05:44;2.60;;;1.20;;
75537;SDS011;64121;48.666;8.114;2023-07-29T04:08:09;2.60;;;1.60;;
75537;SDS011;64121;48.666;8.114;2023-07-29T04:10:35;3.07;;;1.20;;
75537;SDS011;64121;48.666;8.114;2023-07-29T04:13:00;2.67;;;1.27;;
75537;SDS011;64121;48.666;8.114;2023-07-29T04:15:26;2.13;;;1.13;;
75537;SDS011;64121;48.666;8.114;2023-07-29T04:17:52;1.95;;;1.10;;
75537;SDS011;64121;48.666;8.114;2023-07-29T04:20:17;2.17;;;1.20;;
75537;SDS011;64121;48.666;8.114;2023-07-29T04:22:42;2.13;;;1.03;;
75537;SDS011;64121;48.666;8.114;2023-07-29T04:25:07;2.70;;;0.90;;
75537;SDS011;64121;48.666;8.114;2023-07-29T04:27:32;1.88;;;0.88;;
75537;SDS011;64121;48.666;8.114;2023-07-29T04:29:58;2.33;;;1.00;;
75537;SDS011;64121;48.666;8.114;2023-07-29T04:32:24;2.00;;;1.17;;
75537;SDS011;64121;48.666;8.114;2023-07-29T04:34:49;2.20;;;1.25;;
75537;SDS011;64121;48.666;8.114;2023-07-29T04:37:14;2.83;;;0.90;;
75537;SDS011;64121;48.666;8.114;2023-07-29T04:39:40;2.13;;;0.90;;
75537;SDS011;64121;48.666;8.114;2023-07-29T04:42:05;1.30;;;0.87;;
75537;SDS011;64121;48.666;8.114;2023-07-29T04:44:30;2.80;;;0.95;;
75537;SDS011;64121;48.666;8.114;2023-07-29T04:46:55;2.30;;;1.00;;
75537;SDS011;64121;48.666;8.114;2023-07-29T04:49:22;1.60;;;0.97;;
75537;SDS011;64121;48.666;8.114;2023-07-29T04:51:47;3.17;;;1.20;;
75537;SDS011;64121;48.666;8.114;2023-07-29T04:54:12;2.67;;;1.03;;
75537;SDS011;64121;48.666;8.114;2023-07-29T04:56:37;1.73;;;0.97;;
75537;SDS011;64121;48.666;8.114;2023-07-29T04:59:03;2.53;;;1.30;;
75537;SDS011;64121;48.666;8.114;2023-07-29T05:01:28;1.80;;;1.00;;
75537;SDS011;64121;48.666;8.114;2023-07-29T05:03:53;2.27;;;1.20;;
75537;SDS011;64121;48.666;8.114;2023-07-29T05:06:19;3.03;;;1.20;;
75537;SDS011;64121;48.666;8.114;2023-07-29T05:08:45;3.00;;;1.30;;
75537;SDS011;64121;48.666;8.114;2023-07-29T05:11:10;2.10;;;1.27;;
75537;SDS011;64121;48.666;8.114;2023-07-29T05:13:35;2.33;;;1.27;;
75537;SDS011;64121;48.666;8.114;2023-07-29T05:16:01;2.97;;;1.75;;
75537;SDS011;64121;48.666;8.114;2023-07-29T05:18:26;2.17;;;1.23;;
75537;SDS011;64121;48.666;8.114;2023-07-29T05:20:51;2.63;;;1.13;;
75537;SDS011;64121;48.666;8.114;2023-07-29T05:23:18;2.83;;;1.30;;
75537;SDS011;64121;48.666;8.114;2023-07-29T05:25:43;2.47;;;1.17;;
75537;SDS011;64121;48.666;8.114;2023-07-29T05:28:08;2.53;;;1.50;;
75537;SDS011;64121;48.666;8.114;2023-07-29T05:30:33;2.50;;;1.20;;
75537;SDS011;64121;48.666;8.114;2023-07-29T05:32:58;3.00;;;1.63;;
75537;SDS011;64121;48.666;8.114;2023-07-29T05:35:24;1.92;;;1.20;;
75537;SDS011;64121;48.666;8.114;2023-07-29T05:37:49;3.70;;;1.43;;
75537;SDS011;64121;48.666;8.114;2023-07-29T05:40:16;2.28;;;1.30;;
75537;SDS011;64121;48.666;8.114;2023-07-29T05:42:41;2.17;;;1.40;;
75537;SDS011;64121;48.666;8.114;2023-07-29T05:45:07;4.40;;;1.40;;
75537;SDS011;64121;48.666;8.114;2023-07-29T05:47:32;2.28;;;1.30;;
75537;SDS011;64121;48.666;8.114;2023-07-29T05:49:57;2.97;;;1.33;;
75537;SDS011;64121;48.666;8.114;2023-07-29T05:52:22;2.47;;;1.20;;
75537;SDS011;64121;48.666;8.114;2023-07-29T05:54:48;2.78;;;1.58;;
75537;SDS011;64121;48.666;8.114;2023-07-29T05:57:14;2.00;;;1.10;;
75537;SDS011;64121;48.666;8.114;2023-07-29T05:59:39;3.08;;;1.20;;
75537;SDS011;64121;48.666;8.114;2023-07-29T06:02:05;2.83;;;1.60;;
75537;SDS011;64121;48.666;8.114;2023-07-29T06:04:30;2.23;;;1.37;;
75537;SDS011;64121;48.666;8.114;2023-07-29T06:06:55;2.50;;;1.55;;
75537;SDS011;64121;48.666;8.114;2023-07-29T06:09:20;2.60;;;1.53;;
75537;SDS011;64121;48.666;8.114;2023-07-29T06:11:45;2.47;;;1.40;;
75537;SDS011;64121;48.666;8.114;2023-07-29T06:14:12;4.07;;;1.80;;
75537;SDS011;64121;48.666;8.114;2023-07-29T06:16:37;2.22;;;1.70;;
75537;SDS011;64121;48.666;8.114;2023-07-29T06:19:02;2.60;;;1.50;;
75537;SDS011;64121;48.666;8.114;2023-07-29T06:21:27;2.03;;;1.40;;
75537;SDS011;64121;48.666;8.114;2023-07-29T06:23:53;3.37;;;1.67;;
75537;SDS011;64121;48.666;8.114;2023-07-29T06:26:18;3.10;;;1.67;;
75537;SDS011;64121;48.666;8.114;2023-07-29T06:28:43;2.27;;;1.50;;
75537;SDS011;64121;48.666;8.114;2023-07-29T06:31:10;4.00;;;2.00;;
75537;SDS011;64121;48.666;8.114;2023-07-29T06:33:35;3.20;;;1.88;;
75537;SDS011;64121;48.666;8.114;2023-07-29T06:36:00;3.30;;;1.40;;
75537;SDS011;64121;48.666;8.114;2023-07-29T06:38:25;2.63;;;1.80;;
75537;SDS011;64121;48.666;8.114;2023-07-29T06:40:50;2.70;;;1.60;;
75537;SDS011;64121;48.666;8.114;2023-07-29T06:43:15;2.73;;;1.33;;
75537;SDS011;64121;48.666;8.114;2023-07-29T06:45:41;3.53;;;1.60;;
75537;SDS011;64121;48.666;8.114;2023-07-29T06:48:07;3.03;;;1.20;;
75537;SDS011;64121;48.666;8.114;2023-07-29T06:50:32;2.50;;;1.40;;
75537;SDS011;64121;48.666;8.114;2023-07-29T06:52:58;2.83;;;1.40;;
75537;SDS011;64121;48.666;8.114;2023-07-29T06:55:23;2.30;;;1.37;;
75537;SDS011;64121;48.666;8.114;2023-07-29T06:57:48;3.00;;;1.60;;
75537;SDS011;64121;48.666;8.114;2023-07-29T07:00:13;2.63;;;1.27;;
75537;SDS011;64121;48.666;8.114;2023-07-29T07:02:38;2.25;;;1.23;;
75537;SDS011;64121;48.666;8.114;2023-07-29T07:05:05;2.33;;;1.33;;
75537;SDS011;64121;48.666;8.114;2023-07-29T07:07:30;2.55;;;1.30;;
75537;SDS011;64121;48.666;8.114;2023-07-29T07:09:56;2.00;;;1.17;;
75537;SDS011;64121;48.666;8.114;2023-07-29T07:12:21;2.10;;;1.20;;
75537;SDS011;64121;48.666;8.114;2023-07-29T07:14:46;1.77;;;0.90;;
75537;SDS011;64121;48.666;8.114;2023-07-29T07:17:12;1.67;;;0.90;;
75537;SDS011;64121;48.666;8.114;2023-07-29T07:19:37;1.83;;;0.87;;
75537;SDS011;64121;48.666;8.114;2023-07-29T07:22:03;1.73;;;1.00;;
75537;SDS011;64121;48.666;8.114;2023-07-29T07:24:29;2.45;;;0.90;;
75537;SDS011;64121;48.666;8.114;2023-07-29T07:26:54;1.23;;;0.70;;
75537;SDS011;64121;48.666;8.114;2023-07-29T07:29:19;2.40;;;1.00;;
75537;SDS011;64121;48.666;8.114;2023-07-29T07:31:49;1.97;;;1.00;;
75537;SDS011;64121;48.666;8.114;2023-07-29T07:34:14;1.10;;;0.63;;
75537;SDS011;64121;48.666;8.114;2023-07-29T07:36:39;1.30;;;0.80;;
75537;SDS011;64121;48.666;8.114;2023-07-29T07:39:06;1.67;;;0.70;;
75537;SDS011;64121;48.666;8.114;2023-07-29T07:41:31;1.50;;;0.88;;
75537;SDS011;64121;48.666;8.114;2023-07-29T07:43:56;2.57;;;0.77;;
75537;SDS011;64121;48.666;8.114;2023-07-29T07:46:21;2.10;;;0.90;;
75537;SDS011;64121;48.666;8.114;2023-07-29T07:48:46;1.33;;;0.80;;
75537;SDS011;64121;48.666;8.114;2023-07-29T07:51:12;1.57;;;0.80;;
75537;SDS011;64121;48.666;8.114;2023-07-29T07:53:37;1.25;;;0.88;;
75537;SDS011;64121;48.666;8.114;2023-07-29T07:56:04;1.40;;;0.90;;
75537;SDS011;64121;48.666;8.114;2023-07-29T07:58:29;1.45;;;0.68;;
75537;SDS011;64121;48.666;8.114;2023-07-29T08:01:00;1.87;;;0.70;;
75537;SDS011;64121;48.666;8.114;2023-07-29T08:03:25;1.98;;;0.95;;
75537;SDS011;64121;48.666;8.114;2023-07-29T08:05:50;1.57;;;0.77;;
75537;SDS011;64121;48.666;8.114;2023-07-29T08:08:15;1.83;;;0.73;;
75537;SDS011;64121;48.666;8.114;2023-07-29T08:10:41;1.80;;;0.87;;
75537;SDS011;64121;48.666;8.114;2023-07-29T08:13:07;1.20;;;0.70;;
75537;SDS011;64121;48.666;8.114;2023-07-29T08:15:32;1.58;;;0.80;;
75537;SDS011;64121;48.666;8.114;2023-07-29T08:17:57;2.20;;;1.00;;
75537;SDS011;64121;48.666;8.114;2023-07-29T08:20:23;3.10;;;1.03;;
75537;SDS011;64121;48.666;8.114;2023-07-29T08:22:48;2.13;;;1.00;;
75537;SDS011;64121;48.666;8.114;2023-07-29T08:25:13;1.97;;;0.97;;
75537;SDS011;64121;48.666;8.114;2023-07-29T08:27:38;2.20;;;0.80;;
75537;SDS011;64121;48.666;8.114;2023-07-29T08:30:05;2.23;;;1.00;;
75537;SDS011;64121;48.666;8.114;2023-07-29T08:32:31;1.83;;;0.90;;
75537;SDS011;64121;48.666;8.114;2023-07-29T08:34:56;1.47;;;0.87;;
75537;SDS011;64121;48.666;8.114;2023-07-29T08:37:21;1.03;;;0.60;;
75537;SDS011;64121;48.666;8.114;2023-07-29T08:39:46;2.97;;;0.80;;
75537;SDS011;64121;48.666;8.114;2023-07-29T08:42:12;2.33;;;0.87;;
75537;SDS011;64121;48.666;8.114;2023-07-29T08:44:40;2.17;;;0.90;;
75537;SDS011;64121;48.666;8.114;2023-07-29T08:47:06;1.23;;;0.70;;
75537;SDS011;64121;48.666;8.114;2023-07-29T08:49:32;1.70;;;0.90;;
75537;SDS011;64121;48.666;8.114;2023-07-29T08:51:57;2.13;;;0.80;;
75537;SDS011;64121;48.666;8.114;2023-07-29T08:54:23;1.48;;;0.80;;
75537;SDS011;64121;48.666;8.114;2023-07-29T08:56:48;2.10;;;1.10;;
75537;SDS011;64121;48.666;8.114;2023-07-29T08:59:14;1.98;;;0.98;;
75537;SDS011;64121;48.666;8.114;2023-07-29T09:01:39;1.83;;;0.90;;
75537;SDS011;64121;48.666;8.114;2023-07-29T09:04:05;2.03;;;1.03;;
75537;SDS011;64121;48.666;8.114;2023-07-29T09:06:31;1.75;;;0.90;;
75537;SDS011;64121;48.666;8.114;2023-07-29T09:08:56;1.35;;;0.80;;
75537;SDS011;64121;48.666;8.114;2023-07-29T09:11:21;2.60;;;0.88;;
75537;SDS011;64121;48.666;8.114;2023-07-29T09:13:47;1.80;;;1.03;;
75537;SDS011;64121;48.666;8.114;2023-07-29T09:16:12;1.70;;;1.10;;
75537;SDS011;64121;48.666;8.114;2023-07-29T09:18:38;2.10;;;1.05;;
75537;SDS011;64121;48.666;8.114;2023-07-29T09:21:04;1.93;;;1.07;;
75537;SDS011;64121;48.666;8.114;2023-07-29T09:23:38;2.88;;;1.13;;
75537;SDS011;64121;48.666;8.114;2023-07-29T09:26:03;1.17;;;0.60;;
75537;SDS011;64121;48.666;8.114;2023-07-29T09:28:31;1.60;;;0.57;;
75537;SDS011;64121;48.666;8.114;2023-07-29T09:30:57;1.02;;;0.50;;
75537;SDS011;64121;48.666;8.114;2023-07-29T09:33:22;2.03;;;0.57;;
75537;SDS011;64121;48.666;8.114;2023-07-29T09:35:50;0.85;;;0.47;;
75537;SDS011;64121;48.666;8.114;2023-07-29T09:38:17;1.13;;;0.60;;
75537;SDS011;64121;48.666;8.114;2023-07-29T09:40:42;1.52;;;0.80;;
75537;SDS011;64121;48.666;8.114;2023-07-29T09:43:09;1.97;;;0.60;;
75537;SDS011;64121;48.666;8.114;2023-07-29T09:45:35;1.60;;;0.65;;
75537;SDS011;64121;48.666;8.114;2023-07-29T09:48:00;2.38;;;0.98;;
75537;SDS011;64121;48.666;8.114;2023-07-29T09:50:26;1.27;;;0.70;;
75537;SDS011;64121;48.666;8.114;2023-07-29T09:52:52;2.85;;;0.80;;
75537;SDS011;64121;48.666;8.114;2023-07-29T09:55:19;2.00;;;0.90;;
75537;SDS011;64121;48.666;8.114;2023-07-29T09:57:44;1.67;;;0.95;;
75537;SDS011;64121;48.666;8.114;2023-07-29T10:00:10;4.10;;;1.20;;
75537;SDS011;64121;48.666;8.114;2023-07-29T10:02:36;3.03;;;1.27;;
75537;SDS011;64121;48.666;8.114;2023-07-29T10:05:01;1.92;;;1.00;;
75537;SDS011;64121;48.666;8.114;2023-07-29T10:07:27;2.05;;;1.00;;
75537;SDS011;64121;48.666;8.114;2023-07-29T10:09:52;2.45;;;1.40;;
75537;SDS011;64121;48.666;8.114;2023-07-29T10:12:19;1.80;;;1.15;;
75537;SDS011;64121;48.666;8.114;2023-07-29T10:14:45;1.75;;;1.13;;
75537;SDS011;64121;48.666;8.114;2023-07-29T10:17:12;1.95;;;1.00;;
75537;SDS011;64121;48.666;8.114;2023-07-29T10:19:38;1.52;;;0.90;;
75537;SDS011;64121;48.666;8.114;2023-07-29T10:22:04;2.08;;;1.05;;
75537;SDS011;64121;48.666;8.114;2023-07-29T10:24:30;1.85;;;1.10;;
75537;SDS011;64121;48.666;8.114;2023-07-29T10:26:57;1.55;;;1.00;;
75537;SDS011;64121;48.666;8.114;2023-07-29T10:29:24;3.00;;;1.90;;
75537;SDS011;64121;48.666;8.114;2023-07-29T10:31:52;1.52;;;0.80;;
75537;SDS011;64121;48.666;8.114;2023-07-29T10:34:17;1.58;;;0.75;;
75537;SDS011;64121;48.666;8.114;2023-07-29T10:36:43;1.20;;;0.75;;
75537;SDS011;64121;48.666;8.114;2023-07-29T10:39:08;2.25;;;0.70;;
75537;SDS011;64121;48.666;8.114;2023-07-29T10:46:58;1.30;;;0.70;;
75537;SDS011;64121;48.666;8.114;2023-07-29T10:49:24;3.17;;;0.75;;
75537;SDS011;64121;48.666;8.114;2023-07-29T10:51:49;1.07;;;0.70;;
75537;SDS011;64121;48.666;8.114;2023-07-29T10:54:14;1.33;;;0.63;;
75537;SDS011;64121;48.666;8.114;2023-07-29T10:56:40;1.13;;;0.83;;
75537;SDS011;64121;48.666;8.114;2023-07-29T11:01:50;1.75;;;0.88;;
75537;SDS011;64121;48.666;8.114;2023-07-29T11:04:25;1.83;;;0.93;;
75537;SDS011;64121;48.666;8.114;2023-07-29T11:09:40;1.23;;;0.70;;
75537;SDS011;64121;48.666;8.114;2023-07-29T11:12:05;2.35;;;0.90;;
75537;SDS011;64121;48.666;8.114;2023-07-29T11:14:47;1.80;;;0.85;;
75537;SDS011;64121;48.666;8.114;2023-07-29T11:17:12;1.40;;;0.93;;
75537;SDS011;64121;48.666;8.114;2023-07-29T11:19:39;1.70;;;0.90;;
75537;SDS011;64121;48.666;8.114;2023-07-29T11:22:05;1.50;;;0.80;;
75537;SDS011;64121;48.666;8.114;2023-07-29T11:24:30;2.72;;;1.35;;
75537;SDS011;64121;48.666;8.114;2023-07-29T11:26:55;3.90;;;1.17;;
75537;SDS011;64121;48.666;8.114;2023-07-29T11:29:20;2.27;;;0.90;;
75537;SDS011;64121;48.666;8.114;2023-07-29T11:31:46;1.50;;;0.90;;
75537;SDS011;64121;48.666;8.114;2023-07-29T11:34:12;2.70;;;0.98;;
75537;SDS011;64121;48.666;8.114;2023-07-29T11:36:38;1.80;;;0.90;;
75537;SDS011;64121;48.666;8.114;2023-07-29T11:39:09;1.33;;;0.80;;
75537;SDS011;64121;48.666;8.114;2023-07-29T11:41:34;1.60;;;0.90;;
75537;SDS011;64121;48.666;8.114;2023-07-29T11:43:59;1.73;;;0.93;;
75537;SDS011;64121;48.666;8.114;2023-07-29T11:46:24;2.57;;;1.10;;
75537;SDS011;64121;48.666;8.114;2023-07-29T11:48:49;4.50;;;1.10;;
75537;SDS011;64121;48.666;8.114;2023-07-29T11:51:15;4.90;;;1.00;;
75537;SDS011;64121;48.666;8.114;2023-07-29T11:53:41;1.83;;;0.93;;
75537;SDS011;64121;48.666;8.114;2023-07-29T11:56:07;1.77;;;0.90;;
75537;SDS011;64121;48.666;8.114;2023-07-29T11:58:32;1.67;;;0.98;;
75537;SDS011;64121;48.666;8.114;2023-07-29T12:00:57;2.40;;;1.00;;
75537;SDS011;64121;48.666;8.114;2023-07-29T12:03:23;2.63;;;1.03;;
75537;SDS011;64121;48.666;8.114;2023-07-29T12:05:48;3.10;;;1.13;;
75537;SDS011;64121;48.666;8.114;2023-07-29T12:08:13;2.47;;;1.05;;
75537;SDS011;64121;48.666;8.114;2023-07-29T12:10:40;1.83;;;1.13;;
75537;SDS011;64121;48.666;8.114;2023-07-29T12:13:05;2.85;;;1.45;;
75537;SDS011;64121;48.666;8.114;2023-07-29T12:15:32;2.22;;;1.23;;
75537;SDS011;64121;48.666;8.114;2023-07-29T12:17:58;1.50;;;0.90;;
75537;SDS011;64121;48.666;8.114;2023-07-29T12:20:23;2.30;;;1.15;;
75537;SDS011;64121;48.666;8.114;2023-07-29T12:22:52;2.35;;;1.23;;
75537;SDS011;64121;48.666;8.114;2023-07-29T12:25:17;1.50;;;0.98;;
75537;SDS011;64121;48.666;8.114;2023-07-29T12:27:44;2.03;;;1.10;;
75537;SDS011;64121;48.666;8.114;2023-07-29T12:30:10;4.10;;;1.33;;
75537;SDS011;64121;48.666;8.114;2023-07-29T12:32:42;2.10;;;1.25;;
75537;SDS011;64121;48.666;8.114;2023-07-29T12:35:09;1.50;;;1.10;;
75537;SDS011;64121;48.666;8.114;2023-07-29T12:37:34;2.67;;;1.38;;
75537;SDS011;64121;48.666;8.114;2023-07-29T12:39:59;3.23;;;1.20;;
75537;SDS011;64121;48.666;8.114;2023-07-29T12:42:25;2.63;;;1.30;;
75537;SDS011;64121;48.666;8.114;2023-07-29T12:44:51;1.63;;;1.03;;
75537;SDS011;64121;48.666;8.114;2023-07-29T12:47:16;3.80;;;1.35;;
75537;SDS011;64121;48.666;8.114;2023-07-29T12:49:41;1.93;;;1.27;;
75537;SDS011;64121;48.666;8.114;2023-07-29T12:52:07;3.40;;;1.60;;
75537;SDS011;64121;48.666;8.114;2023-07-29T12:54:32;2.35;;;1.35;;
75537;SDS011;64121;48.666;8.114;2023-07-29T12:56:57;3.53;;;1.13;;
75537;SDS011;64121;48.666;8.114;2023-07-29T12:59:22;2.10;;;1.40;;
75537;SDS011;64121;48.666;8.114;2023-07-29T13:01:49;3.17;;;1.33;;
75537;SDS011;64121;48.666;8.114;2023-07-29T13:04:14;3.70;;;1.50;;
75537;SDS011;64121;48.666;8.114;2023-07-29T13:06:39;2.13;;;1.50;;
75537;SDS011;64121;48.666;8.114;2023-07-29T13:09:04;2.90;;;1.40;;
75537;SDS011;64121;48.666;8.114;2023-07-29T13:11:29;2.50;;;1.33;;
75537;SDS011;64121;48.666;8.114;2023-07-29T13:13:55;3.50;;;1.40;;
75537;SDS011;64121;48.666;8.114;2023-07-29T13:16:20;3.50;;;1.40;;
75537;SDS011;64121;48.666;8.114;2023-07-29T13:18:46;2.40;;;1.37;;
75537;SDS011;64121;48.666;8.114;2023-07-29T13:21:11;2.00;;;1.20;;
75537;SDS011;64121;48.666;8.114;2023-07-29T13:23:36;2.43;;;1.43;;
75537;SDS011;64121;48.666;8.114;2023-07-29T13:26:02;2.97;;;1.47;;
75537;SDS011;64121;48.666;8.114;2023-07-29T13:28:27;2.90;;;1.43;;
75537;SDS011;64121;48.666;8.114;2023-07-29T13:30:52;2.00;;;1.20;;
75537;SDS011;64121;48.666;8.114;2023-07-29T13:33:17;2.27;;;1.47;;
75537;SDS011;64121;48.666;8.114;2023-07-29T13:35:44;2.70;;;1.80;;
75537;SDS011;64121;48.666;8.114;2023-07-29T13:38:09;2.35;;;1.73;;
75537;SDS011;64121;48.666;8.114;2023-07-29T13:40:34;3.20;;;1.47;;
75537;SDS011;64121;48.666;8.114;2023-07-29T13:42:59;2.00;;;1.37;;
75537;SDS011;64121;48.666;8.114;2023-07-29T13:45:24;2.43;;;1.50;;
75537;SDS011;64121;48.666;8.114;2023-07-29T13:47:50;3.40;;;1.43;;
75537;SDS011;64121;48.666;8.114;2023-07-29T13:50:15;2.50;;;1.30;;
75537;SDS011;64121;48.666;8.114;2023-07-29T13:52:41;2.60;;;1.40;;
75537;SDS011;64121;48.666;8.114;2023-07-29T13:55:07;2.65;;;1.63;;
75537;SDS011;64121;48.666;8.114;2023-07-29T13:57:32;2.33;;;1.30;;
75537;SDS011;64121;48.666;8.114;2023-07-29T13:59:57;4.03;;;1.93;;
75537;SDS011;64121;48.666;8.114;2023-07-29T14:02:22;2.77;;;1.43;;
75537;SDS011;64121;48.666;8.114;2023-07-29T14:04:48;2.70;;;1.40;;
75537;SDS011;64121;48.666;8.114;2023-07-29T14:07:13;3.57;;;1.60;;
75537;SDS011;64121;48.666;8.114;2023-07-29T14:09:39;2.83;;;1.37;;
75537;SDS011;64121;48.666;8.114;2023-07-29T14:12:05;2.10;;;1.20;;
75537;SDS011;64121;48.666;8.114;2023-07-29T14:14:30;2.80;;;1.45;;
75537;SDS011;64121;48.666;8.114;2023-07-29T14:16:55;2.40;;;1.50;;
75537;SDS011;64121;48.666;8.114;2023-07-29T14:19:20;2.00;;;1.30;;
75537;SDS011;64121;48.666;8.114;2023-07-29T14:21:45;2.77;;;1.43;;
75537;SDS011;64121;48.666;8.114;2023-07-29T14:24:10;1.80;;;1.17;;
75537;SDS011;64121;48.666;8.114;2023-07-29T14:26:37;2.07;;;1.30;;
75537;SDS011;64121;48.666;8.114;2023-07-29T14:29:02;2.50;;;1.25;;
75537;SDS011;64121;48.666;8.114;2023-07-29T14:31:27;3.37;;;1.30;;
75537;SDS011;64121;48.666;8.114;2023-07-29T14:33:52;2.63;;;1.70;;
75537;SDS011;64121;48.666;8.114;2023-07-29T14:36:18;3.80;;;1.50;;
75537;SDS011;64121;48.666;8.114;2023-07-29T14:38:43;2.27;;;1.57;;
75537;SDS011;64121;48.666;8.114;2023-07-29T14:41:08;2.23;;;1.40;;
75537;SDS011;64121;48.666;8.114;2023-07-29T14:43:35;3.87;;;1.50;;
75537;SDS011;64121;48.666;8.114;2023-07-29T14:46:00;2.72;;;1.38;;
75537;SDS011;64121;48.666;8.114;2023-07-29T14:48:25;2.53;;;1.53;;